sensor_id;sensor_type;location;lat;lon;timestamp;P1;durP1;ratioP1;P2;durP2;ratioP2
20986;SDS011;10652;50.306;8.570;2023-04-03T00:00:51;5.05;;;1.25;;
20986;SDS011;10652;50.306;8.570;2023-04-03T00:04:54;2.22;;;1.08;;
20986;SDS011;10652;50.306;8.570;2023-04-03T00:08:57;2.17;;;1.10;;
20986;SDS011;10652;50.306;8.570;2023-04-03T00:12:59;1.50;;;1.00;;
20986;SDS011;10652;50.306;8.570;2023-04-03T00:17:01;2.45;;;1.00;;
20986;SDS011;10652;50.306;8.570;2023-04-03T00:21:03;1.65;;;1.15;;
20986;SDS011;10652;50.306;8.570;2023-04-03T00:25:06;2.90;;;1.30;;
20986;SDS011;10652;50.306;8.570;2023-04-03T00:29:09;4.85;;;1.40;;
20986;SDS011;10652;50.306;8.570;2023-04-03T00:33:11;2.50;;;1.30;;
20986;SDS011;10652;50.306;8.570;2023-04-03T00:37:14;1.17;;;1.05;;
20986;SDS011;10652;50.306;8.570;2023-04-03T00:41:17;2.95;;;1.30;;
20986;SDS011;10652;50.306;8.570;2023-04-03T00:45:27;3.63;;;1.50;;
20986;SDS011;10652;50.306;8.570;2023-04-03T00:49:37;3.03;;;1.20;;
20986;SDS011;10652;50.306;8.570;2023-04-03T00:53:42;2.67;;;1.50;;
20986;SDS011;10652;50.306;8.570;2023-04-03T00:57:51;1.83;;;1.10;;
20986;SDS011;10652;50.306;8.570;2023-04-03T01:01:54;2.65;;;1.30;;
20986;SDS011;10652;50.306;8.570;2023-04-03T01:05:57;2.58;;;1.05;;
20986;SDS011;10652;50.306;8.570;2023-04-03T01:10:04;4.10;;;1.27;;
20986;SDS011;10652;50.306;8.570;2023-04-03T01:14:08;1.73;;;1.02;;
20986;SDS011;10652;50.306;8.570;2023-04-03T01:18:10;1.60;;;1.13;;
20986;SDS011;10652;50.306;8.570;2023-04-03T01:22:19;2.08;;;1.00;;
20986;SDS011;10652;50.306;8.570;2023-04-03T01:26:31;2.35;;;0.98;;
20986;SDS011;10652;50.306;8.570;2023-04-03T01:30:36;3.42;;;1.13;;
20986;SDS011;10652;50.306;8.570;2023-04-03T01:34:45;2.25;;;1.08;;
20986;SDS011;10652;50.306;8.570;2023-04-03T01:38:47;2.50;;;1.10;;
20986;SDS011;10652;50.306;8.570;2023-04-03T01:42:50;3.28;;;1.20;;
20986;SDS011;10652;50.306;8.570;2023-04-03T01:46:52;3.58;;;1.27;;
20986;SDS011;10652;50.306;8.570;2023-04-03T01:50:56;2.65;;;1.38;;
20986;SDS011;10652;50.306;8.570;2023-04-03T01:54:59;1.98;;;1.10;;
20986;SDS011;10652;50.306;8.570;2023-04-03T01:59:01;2.17;;;1.30;;
20986;SDS011;10652;50.306;8.570;2023-04-03T02:03:03;3.08;;;1.10;;
20986;SDS011;10652;50.306;8.570;2023-04-03T02:07:05;2.97;;;1.13;;
20986;SDS011;10652;50.306;8.570;2023-04-03T02:11:08;3.25;;;1.08;;
20986;SDS011;10652;50.306;8.570;2023-04-03T02:15:10;3.65;;;1.38;;
20986;SDS011;10652;50.306;8.570;2023-04-03T02:19:12;3.25;;;1.25;;
20986;SDS011;10652;50.306;8.570;2023-04-03T02:23:14;1.75;;;0.90;;
20986;SDS011;10652;50.306;8.570;2023-04-03T02:27:16;3.70;;;0.88;;
20986;SDS011;10652;50.306;8.570;2023-04-03T02:31:19;4.53;;;1.35;;
20986;SDS011;10652;50.306;8.570;2023-04-03T02:35:22;3.20;;;1.23;;
20986;SDS011;10652;50.306;8.570;2023-04-03T02:39:25;2.38;;;1.05;;
20986;SDS011;10652;50.306;8.570;2023-04-03T02:43:29;3.05;;;0.90;;
20986;SDS011;10652;50.306;8.570;2023-04-03T02:47:31;1.88;;;0.90;;
20986;SDS011;10652;50.306;8.570;2023-04-03T02:51:33;4.07;;;1.00;;
20986;SDS011;10652;50.306;8.570;2023-04-03T02:55:35;3.70;;;1.00;;
20986;SDS011;10652;50.306;8.570;2023-04-03T02:59:37;4.68;;;1.30;;
20986;SDS011;10652;50.306;8.570;2023-04-03T03:03:45;6.22;;;1.38;;
20986;SDS011;10652;50.306;8.570;2023-04-03T03:07:47;3.15;;;1.10;;
20986;SDS011;10652;50.306;8.570;2023-04-03T03:11:49;4.07;;;1.10;;
20986;SDS011;10652;50.306;8.570;2023-04-03T03:15:51;2.80;;;1.17;;
20986;SDS011;10652;50.306;8.570;2023-04-03T03:19:53;5.00;;;1.40;;
20986;SDS011;10652;50.306;8.570;2023-04-03T03:23:55;3.47;;;1.20;;
20986;SDS011;10652;50.306;8.570;2023-04-03T03:27:58;3.42;;;1.08;;
20986;SDS011;10652;50.306;8.570;2023-04-03T03:32:00;6.20;;;1.10;;
20986;SDS011;10652;50.306;8.570;2023-04-03T03:36:02;2.88;;;1.00;;
20986;SDS011;10652;50.306;8.570;2023-04-03T03:40:04;5.70;;;1.02;;
20986;SDS011;10652;50.306;8.570;2023-04-03T03:44:07;2.60;;;1.10;;
20986;SDS011;10652;50.306;8.570;2023-04-03T03:48:09;4.05;;;0.90;;
20986;SDS011;10652;50.306;8.570;2023-04-03T03:52:12;2.63;;;1.17;;
20986;SDS011;10652;50.306;8.570;2023-04-03T03:56:14;3.53;;;1.17;;
20986;SDS011;10652;50.306;8.570;2023-04-03T04:00:17;4.68;;;1.40;;
20986;SDS011;10652;50.306;8.570;2023-04-03T04:04:26;2.22;;;0.80;;
20986;SDS011;10652;50.306;8.570;2023-04-03T04:08:29;4.97;;;1.08;;
20986;SDS011;10652;50.306;8.570;2023-04-03T04:12:31;4.25;;;1.40;;
20986;SDS011;10652;50.306;8.570;2023-04-03T04:16:34;3.70;;;1.30;;
20986;SDS011;10652;50.306;8.570;2023-04-03T04:20:42;4.03;;;1.23;;
20986;SDS011;10652;50.306;8.570;2023-04-03T04:24:48;3.40;;;1.00;;
20986;SDS011;10652;50.306;8.570;2023-04-03T04:28:50;3.58;;;1.00;;
20986;SDS011;10652;50.306;8.570;2023-04-03T04:32:53;3.40;;;1.10;;
20986;SDS011;10652;50.306;8.570;2023-04-03T04:36:56;3.53;;;1.48;;
20986;SDS011;10652;50.306;8.570;2023-04-03T04:41:00;3.70;;;1.20;;
20986;SDS011;10652;50.306;8.570;2023-04-03T04:45:02;2.35;;;1.13;;
20986;SDS011;10652;50.306;8.570;2023-04-03T04:49:05;6.00;;;1.50;;
20986;SDS011;10652;50.306;8.570;2023-04-03T04:53:08;3.58;;;1.23;;
20986;SDS011;10652;50.306;8.570;2023-04-03T04:57:10;3.63;;;1.33;;
20986;SDS011;10652;50.306;8.570;2023-04-03T05:01:13;6.00;;;1.35;;
20986;SDS011;10652;50.306;8.570;2023-04-03T05:05:23;4.88;;;1.10;;
20986;SDS011;10652;50.306;8.570;2023-04-03T05:09:26;5.10;;;1.10;;
20986;SDS011;10652;50.306;8.570;2023-04-03T05:13:28;5.45;;;1.48;;
20986;SDS011;10652;50.306;8.570;2023-04-03T05:17:31;4.05;;;1.17;;
20986;SDS011;10652;50.306;8.570;2023-04-03T05:21:34;4.10;;;1.20;;
20986;SDS011;10652;50.306;8.570;2023-04-03T05:25:42;6.68;;;1.35;;
20986;SDS011;10652;50.306;8.570;2023-04-03T05:29:47;6.80;;;1.30;;
20986;SDS011;10652;50.306;8.570;2023-04-03T05:33:54;3.85;;;1.25;;
20986;SDS011;10652;50.306;8.570;2023-04-03T05:37:56;5.60;;;1.50;;
20986;SDS011;10652;50.306;8.570;2023-04-03T05:41:59;4.80;;;1.40;;
20986;SDS011;10652;50.306;8.570;2023-04-03T05:46:02;4.40;;;1.45;;
20986;SDS011;10652;50.306;8.570;2023-04-03T05:50:04;6.93;;;1.50;;
20986;SDS011;10652;50.306;8.570;2023-04-03T05:54:18;4.93;;;1.30;;
20986;SDS011;10652;50.306;8.570;2023-04-03T05:58:22;5.25;;;1.60;;
20986;SDS011;10652;50.306;8.570;2023-04-03T06:02:26;4.55;;;1.70;;
20986;SDS011;10652;50.306;8.570;2023-04-03T06:10:49;6.43;;;1.55;;
20986;SDS011;10652;50.306;8.570;2023-04-03T06:14:53;7.03;;;1.75;;
20986;SDS011;10652;50.306;8.570;2023-04-03T06:18:55;5.35;;;1.85;;
20986;SDS011;10652;50.306;8.570;2023-04-03T06:22:58;4.88;;;1.67;;
20986;SDS011;10652;50.306;8.570;2023-04-03T06:27:01;4.28;;;1.80;;
20986;SDS011;10652;50.306;8.570;2023-04-03T06:31:04;4.68;;;2.30;;
20986;SDS011;10652;50.306;8.570;2023-04-03T06:35:06;2.88;;;1.80;;
20986;SDS011;10652;50.306;8.570;2023-04-03T06:39:11;5.22;;;1.90;;
20986;SDS011;10652;50.306;8.570;2023-04-03T06:43:16;7.40;;;1.70;;
20986;SDS011;10652;50.306;8.570;2023-04-03T06:47:18;5.70;;;2.10;;
20986;SDS011;10652;50.306;8.570;2023-04-03T06:51:22;4.45;;;1.70;;
20986;SDS011;10652;50.306;8.570;2023-04-03T06:55:26;3.53;;;1.60;;
20986;SDS011;10652;50.306;8.570;2023-04-03T06:59:28;4.70;;;1.88;;
20986;SDS011;10652;50.306;8.570;2023-04-03T07:03:31;5.60;;;1.95;;
20986;SDS011;10652;50.306;8.570;2023-04-03T07:07:35;6.10;;;1.92;;
20986;SDS011;10652;50.306;8.570;2023-04-03T07:11:37;4.78;;;1.83;;
20986;SDS011;10652;50.306;8.570;2023-04-03T07:15:39;4.15;;;2.20;;
20986;SDS011;10652;50.306;8.570;2023-04-03T07:19:41;4.00;;;1.95;;
20986;SDS011;10652;50.306;8.570;2023-04-03T07:23:43;6.82;;;2.50;;
20986;SDS011;10652;50.306;8.570;2023-04-03T07:27:46;4.75;;;1.90;;
20986;SDS011;10652;50.306;8.570;2023-04-03T07:31:48;6.30;;;2.10;;
20986;SDS011;10652;50.306;8.570;2023-04-03T07:35:51;4.45;;;1.83;;
20986;SDS011;10652;50.306;8.570;2023-04-03T07:39:53;5.93;;;2.45;;
20986;SDS011;10652;50.306;8.570;2023-04-03T07:43:56;7.93;;;2.40;;
20986;SDS011;10652;50.306;8.570;2023-04-03T07:47:59;5.80;;;2.40;;
20986;SDS011;10652;50.306;8.570;2023-04-03T07:52:01;6.97;;;2.03;;
20986;SDS011;10652;50.306;8.570;2023-04-03T07:56:04;5.15;;;2.00;;
20986;SDS011;10652;50.306;8.570;2023-04-03T08:00:06;6.00;;;2.30;;
20986;SDS011;10652;50.306;8.570;2023-04-03T08:04:15;5.55;;;2.25;;
20986;SDS011;10652;50.306;8.570;2023-04-03T08:08:18;4.35;;;2.00;;
20986;SDS011;10652;50.306;8.570;2023-04-03T08:12:23;3.87;;;1.70;;
20986;SDS011;10652;50.306;8.570;2023-04-03T08:16:25;5.45;;;1.80;;
20986;SDS011;10652;50.306;8.570;2023-04-03T08:20:28;5.18;;;1.83;;
20986;SDS011;10652;50.306;8.570;2023-04-03T08:24:31;4.88;;;2.00;;
20986;SDS011;10652;50.306;8.570;2023-04-03T08:28:34;4.72;;;1.90;;
20986;SDS011;10652;50.306;8.570;2023-04-03T08:32:36;3.95;;;1.70;;
20986;SDS011;10652;50.306;8.570;2023-04-03T08:36:38;3.65;;;1.58;;
20986;SDS011;10652;50.306;8.570;2023-04-03T08:40:40;4.03;;;1.45;;
20986;SDS011;10652;50.306;8.570;2023-04-03T08:44:47;3.70;;;1.75;;
20986;SDS011;10652;50.306;8.570;2023-04-03T08:49:01;7.30;;;1.40;;
20986;SDS011;10652;50.306;8.570;2023-04-03T08:53:04;4.43;;;1.98;;
20986;SDS011;10652;50.306;8.570;2023-04-03T08:57:13;3.13;;;1.88;;
20986;SDS011;10652;50.306;8.570;2023-04-03T09:05:43;5.90;;;1.73;;
20986;SDS011;10652;50.306;8.570;2023-04-03T09:09:50;4.18;;;1.70;;
20986;SDS011;10652;50.306;8.570;2023-04-03T09:13:57;4.55;;;1.67;;
20986;SDS011;10652;50.306;8.570;2023-04-03T09:22:25;4.38;;;1.55;;
20986;SDS011;10652;50.306;8.570;2023-04-03T09:30:35;3.35;;;1.83;;
20986;SDS011;10652;50.306;8.570;2023-04-03T09:34:38;3.80;;;1.42;;
20986;SDS011;10652;50.306;8.570;2023-04-03T09:38:43;4.05;;;1.70;;
20986;SDS011;10652;50.306;8.570;2023-04-03T09:42:45;4.30;;;1.50;;
20986;SDS011;10652;50.306;8.570;2023-04-03T09:46:56;3.67;;;1.67;;
20986;SDS011;10652;50.306;8.570;2023-04-03T09:51:00;3.58;;;1.40;;
20986;SDS011;10652;50.306;8.570;2023-04-03T09:55:06;3.03;;;1.40;;
20986;SDS011;10652;50.306;8.570;2023-04-03T09:59:13;2.83;;;1.65;;
20986;SDS011;10652;50.306;8.570;2023-04-03T10:03:29;3.20;;;1.42;;
20986;SDS011;10652;50.306;8.570;2023-04-03T10:07:37;3.25;;;1.30;;
20986;SDS011;10652;50.306;8.570;2023-04-03T10:11:41;3.15;;;1.45;;
20986;SDS011;10652;50.306;8.570;2023-04-03T10:16:11;4.20;;;1.38;;
20986;SDS011;10652;50.306;8.570;2023-04-03T10:24:52;4.35;;;1.60;;
20986;SDS011;10652;50.306;8.570;2023-04-03T10:37:38;2.75;;;1.30;;
20986;SDS011;10652;50.306;8.570;2023-04-03T10:46:20;3.90;;;1.30;;
20986;SDS011;10652;50.306;8.570;2023-04-03T10:50:34;2.47;;;1.38;;
20986;SDS011;10652;50.306;8.570;2023-04-03T10:54:41;2.15;;;1.30;;
20986;SDS011;10652;50.306;8.570;2023-04-03T11:03:44;1.85;;;1.20;;
20986;SDS011;10652;50.306;8.570;2023-04-03T11:07:50;4.00;;;1.65;;
20986;SDS011;10652;50.306;8.570;2023-04-03T11:11:55;3.28;;;1.70;;
20986;SDS011;10652;50.306;8.570;2023-04-03T11:16:03;2.58;;;1.40;;
20986;SDS011;10652;50.306;8.570;2023-04-03T11:20:14;3.00;;;1.50;;
20986;SDS011;10652;50.306;8.570;2023-04-03T11:24:25;2.97;;;1.60;;
20986;SDS011;10652;50.306;8.570;2023-04-03T11:28:30;3.75;;;1.63;;
20986;SDS011;10652;50.306;8.570;2023-04-03T11:32:42;2.47;;;1.20;;
20986;SDS011;10652;50.306;8.570;2023-04-03T11:37:52;4.75;;;1.70;;
20986;SDS011;10652;50.306;8.570;2023-04-03T11:41:40;2.38;;;1.50;;
20986;SDS011;10652;50.306;8.570;2023-04-03T11:49:58;3.30;;;1.40;;
20986;SDS011;10652;50.306;8.570;2023-04-03T12:03:29;2.78;;;1.30;;
20986;SDS011;10652;50.306;8.570;2023-04-03T12:07:29;2.70;;;1.17;;
20986;SDS011;10652;50.306;8.570;2023-04-03T12:11:31;2.53;;;1.40;;
20986;SDS011;10652;50.306;8.570;2023-04-03T12:19:49;4.43;;;1.25;;
20986;SDS011;10652;50.306;8.570;2023-04-03T12:24:03;2.22;;;1.13;;
20986;SDS011;10652;50.306;8.570;2023-04-03T12:28:05;2.90;;;1.00;;
20986;SDS011;10652;50.306;8.570;2023-04-03T12:40:57;1.58;;;0.80;;
20986;SDS011;10652;50.306;8.570;2023-04-03T12:45:09;2.17;;;0.90;;
20986;SDS011;10652;50.306;8.570;2023-04-03T12:53:28;3.53;;;1.10;;
20986;SDS011;10652;50.306;8.570;2023-04-03T12:57:35;3.70;;;1.10;;
20986;SDS011;10652;50.306;8.570;2023-04-03T13:01:38;2.03;;;1.00;;
20986;SDS011;10652;50.306;8.570;2023-04-03T13:05:40;2.63;;;0.95;;
20986;SDS011;10652;50.306;8.570;2023-04-03T13:09:54;2.35;;;1.30;;
20986;SDS011;10652;50.306;8.570;2023-04-03T13:14:12;2.58;;;0.95;;
20986;SDS011;10652;50.306;8.570;2023-04-03T13:18:37;1.25;;;0.80;;
20986;SDS011;10652;50.306;8.570;2023-04-03T13:22:42;2.95;;;0.90;;
20986;SDS011;10652;50.306;8.570;2023-04-03T13:26:51;2.50;;;0.90;;
20986;SDS011;10652;50.306;8.570;2023-04-03T13:31:05;4.70;;;1.20;;
20986;SDS011;10652;50.306;8.570;2023-04-03T13:35:29;1.70;;;0.80;;
20986;SDS011;10652;50.306;8.570;2023-04-03T13:39:38;1.85;;;0.93;;
20986;SDS011;10652;50.306;8.570;2023-04-03T13:43:41;2.33;;;1.08;;
20986;SDS011;10652;50.306;8.570;2023-04-03T13:47:44;2.25;;;0.90;;
20986;SDS011;10652;50.306;8.570;2023-04-03T13:51:48;1.92;;;0.90;;
20986;SDS011;10652;50.306;8.570;2023-04-03T13:56:08;1.25;;;0.60;;
20986;SDS011;10652;50.306;8.570;2023-04-03T14:00:36;3.28;;;1.00;;
20986;SDS011;10652;50.306;8.570;2023-04-03T14:08:46;1.50;;;0.77;;
20986;SDS011;10652;50.306;8.570;2023-04-03T14:12:50;2.22;;;0.90;;
20986;SDS011;10652;50.306;8.570;2023-04-03T14:16:54;1.67;;;0.82;;
20986;SDS011;10652;50.306;8.570;2023-04-03T14:20:57;1.45;;;0.73;;
20986;SDS011;10652;50.306;8.570;2023-04-03T14:25:00;4.53;;;0.90;;
20986;SDS011;10652;50.306;8.570;2023-04-03T14:29:02;1.67;;;0.70;;
20986;SDS011;10652;50.306;8.570;2023-04-03T14:33:05;2.38;;;0.80;;
20986;SDS011;10652;50.306;8.570;2023-04-03T14:37:12;2.28;;;0.73;;
20986;SDS011;10652;50.306;8.570;2023-04-03T14:41:18;1.65;;;0.80;;
20986;SDS011;10652;50.306;8.570;2023-04-03T14:45:22;1.80;;;0.73;;
20986;SDS011;10652;50.306;8.570;2023-04-03T14:49:26;1.88;;;0.90;;
20986;SDS011;10652;50.306;8.570;2023-04-03T14:53:30;2.83;;;0.80;;
20986;SDS011;10652;50.306;8.570;2023-04-03T14:57:39;3.72;;;0.80;;
20986;SDS011;10652;50.306;8.570;2023-04-03T15:01:41;2.25;;;0.70;;
20986;SDS011;10652;50.306;8.570;2023-04-03T15:05:44;1.65;;;0.88;;
20986;SDS011;10652;50.306;8.570;2023-04-03T15:09:48;1.33;;;0.70;;
20986;SDS011;10652;50.306;8.570;2023-04-03T15:13:50;1.38;;;0.65;;
20986;SDS011;10652;50.306;8.570;2023-04-03T15:17:53;3.10;;;0.80;;
20986;SDS011;10652;50.306;8.570;2023-04-03T15:21:59;2.38;;;0.82;;
20986;SDS011;10652;50.306;8.570;2023-04-03T15:26:02;2.45;;;0.80;;
20986;SDS011;10652;50.306;8.570;2023-04-03T15:30:05;3.80;;;0.80;;
20986;SDS011;10652;50.306;8.570;2023-04-03T15:34:10;1.27;;;0.73;;
20986;SDS011;10652;50.306;8.570;2023-04-03T15:38:12;4.55;;;0.73;;
20986;SDS011;10652;50.306;8.570;2023-04-03T15:42:14;1.65;;;0.60;;
20986;SDS011;10652;50.306;8.570;2023-04-03T15:46:16;2.33;;;1.17;;
20986;SDS011;10652;50.306;8.570;2023-04-03T15:50:18;1.92;;;0.85;;
20986;SDS011;10652;50.306;8.570;2023-04-03T15:54:20;2.60;;;0.60;;
20986;SDS011;10652;50.306;8.570;2023-04-03T15:58:22;4.38;;;0.90;;
20986;SDS011;10652;50.306;8.570;2023-04-03T16:02:24;2.00;;;0.88;;
20986;SDS011;10652;50.306;8.570;2023-04-03T16:06:29;5.65;;;1.10;;
20986;SDS011;10652;50.306;8.570;2023-04-03T16:10:32;2.55;;;0.85;;
20986;SDS011;10652;50.306;8.570;2023-04-03T16:14:34;3.30;;;0.90;;
20986;SDS011;10652;50.306;8.570;2023-04-03T16:18:36;3.28;;;0.85;;
20986;SDS011;10652;50.306;8.570;2023-04-03T16:22:38;2.15;;;0.73;;
20986;SDS011;10652;50.306;8.570;2023-04-03T16:26:41;2.17;;;0.60;;
20986;SDS011;10652;50.306;8.570;2023-04-03T16:30:44;1.60;;;0.70;;
20986;SDS011;10652;50.306;8.570;2023-04-03T16:34:48;2.13;;;0.90;;
20986;SDS011;10652;50.306;8.570;2023-04-03T16:38:51;1.75;;;1.10;;
20986;SDS011;10652;50.306;8.570;2023-04-03T16:42:53;1.45;;;0.95;;
20986;SDS011;10652;50.306;8.570;2023-04-03T16:46:55;2.03;;;0.80;;
20986;SDS011;10652;50.306;8.570;2023-04-03T16:50:57;2.13;;;1.08;;
20986;SDS011;10652;50.306;8.570;2023-04-03T16:54:59;3.30;;;1.15;;
20986;SDS011;10652;50.306;8.570;2023-04-03T16:59:01;1.80;;;1.10;;
20986;SDS011;10652;50.306;8.570;2023-04-03T17:03:04;2.25;;;0.80;;
20986;SDS011;10652;50.306;8.570;2023-04-03T17:07:06;2.25;;;0.70;;
20986;SDS011;10652;50.306;8.570;2023-04-03T17:11:09;1.95;;;0.80;;
20986;SDS011;10652;50.306;8.570;2023-04-03T17:15:11;2.58;;;0.90;;
20986;SDS011;10652;50.306;8.570;2023-04-03T17:19:13;2.80;;;0.90;;
20986;SDS011;10652;50.306;8.570;2023-04-03T17:23:15;1.88;;;0.90;;
20986;SDS011;10652;50.306;8.570;2023-04-03T17:27:17;1.55;;;0.90;;
20986;SDS011;10652;50.306;8.570;2023-04-03T17:31:19;1.80;;;0.80;;
20986;SDS011;10652;50.306;8.570;2023-04-03T17:35:21;1.80;;;1.00;;
20986;SDS011;10652;50.306;8.570;2023-04-03T17:39:24;3.58;;;1.00;;
20986;SDS011;10652;50.306;8.570;2023-04-03T17:43:26;4.65;;;1.20;;
20986;SDS011;10652;50.306;8.570;2023-04-03T17:47:28;3.33;;;1.20;;
20986;SDS011;10652;50.306;8.570;2023-04-03T17:51:31;2.35;;;1.10;;
20986;SDS011;10652;50.306;8.570;2023-04-03T17:55:36;2.78;;;1.08;;
20986;SDS011;10652;50.306;8.570;2023-04-03T17:59:40;3.28;;;1.10;;
20986;SDS011;10652;50.306;8.570;2023-04-03T18:03:42;2.78;;;1.00;;
20986;SDS011;10652;50.306;8.570;2023-04-03T18:07:45;2.13;;;1.00;;
20986;SDS011;10652;50.306;8.570;2023-04-03T18:11:47;2.10;;;0.90;;
20986;SDS011;10652;50.306;8.570;2023-04-03T18:15:50;2.97;;;1.23;;
20986;SDS011;10652;50.306;8.570;2023-04-03T18:19:53;3.17;;;2.40;;
20986;SDS011;10652;50.306;8.570;2023-04-03T18:23:55;2.45;;;1.23;;
20986;SDS011;10652;50.306;8.570;2023-04-03T18:27:57;1.67;;;1.00;;
20986;SDS011;10652;50.306;8.570;2023-04-03T18:32:01;3.13;;;0.88;;
20986;SDS011;10652;50.306;8.570;2023-04-03T18:36:07;2.28;;;1.10;;
20986;SDS011;10652;50.306;8.570;2023-04-03T18:40:10;2.88;;;1.20;;
20986;SDS011;10652;50.306;8.570;2023-04-03T18:44:13;2.38;;;0.90;;
20986;SDS011;10652;50.306;8.570;2023-04-03T18:48:18;2.05;;;1.00;;
20986;SDS011;10652;50.306;8.570;2023-04-03T18:52:21;6.13;;;1.23;;
20986;SDS011;10652;50.306;8.570;2023-04-03T18:56:25;2.92;;;1.00;;
20986;SDS011;10652;50.306;8.570;2023-04-03T19:00:28;3.08;;;0.95;;
20986;SDS011;10652;50.306;8.570;2023-04-03T19:04:31;3.08;;;0.88;;
20986;SDS011;10652;50.306;8.570;2023-04-03T19:08:33;2.88;;;1.10;;
20986;SDS011;10652;50.306;8.570;2023-04-03T19:12:35;5.30;;;1.45;;
20986;SDS011;10652;50.306;8.570;2023-04-03T19:16:37;2.33;;;1.02;;
20986;SDS011;10652;50.306;8.570;2023-04-03T19:20:40;2.90;;;0.88;;
20986;SDS011;10652;50.306;8.570;2023-04-03T19:24:42;2.63;;;1.10;;
20986;SDS011;10652;50.306;8.570;2023-04-03T19:28:44;3.00;;;1.13;;
20986;SDS011;10652;50.306;8.570;2023-04-03T19:32:49;2.55;;;0.90;;
20986;SDS011;10652;50.306;8.570;2023-04-03T19:36:52;4.53;;;1.13;;
20986;SDS011;10652;50.306;8.570;2023-04-03T19:40:56;1.88;;;0.90;;
20986;SDS011;10652;50.306;8.570;2023-04-03T19:44:58;1.45;;;1.08;;
20986;SDS011;10652;50.306;8.570;2023-04-03T19:49:00;2.95;;;1.10;;
20986;SDS011;10652;50.306;8.570;2023-04-03T19:53:03;2.85;;;1.13;;
20986;SDS011;10652;50.306;8.570;2023-04-03T19:57:05;4.18;;;1.02;;
20986;SDS011;10652;50.306;8.570;2023-04-03T20:01:08;2.60;;;1.13;;
20986;SDS011;10652;50.306;8.570;2023-04-03T20:05:10;1.73;;;0.77;;
20986;SDS011;10652;50.306;8.570;2023-04-03T20:09:12;3.13;;;1.25;;
20986;SDS011;10652;50.306;8.570;2023-04-03T20:13:14;1.80;;;0.80;;
20986;SDS011;10652;50.306;8.570;2023-04-03T20:17:16;4.32;;;1.35;;
20986;SDS011;10652;50.306;8.570;2023-04-03T20:21:18;4.72;;;1.23;;
20986;SDS011;10652;50.306;8.570;2023-04-03T20:25:20;2.95;;;1.10;;
20986;SDS011;10652;50.306;8.570;2023-04-03T20:29:42;3.20;;;0.98;;
20986;SDS011;10652;50.306;8.570;2023-04-03T20:33:45;4.22;;;1.20;;
20986;SDS011;10652;50.306;8.570;2023-04-03T20:37:49;3.17;;;1.08;;
20986;SDS011;10652;50.306;8.570;2023-04-03T20:41:51;3.72;;;1.10;;
20986;SDS011;10652;50.306;8.570;2023-04-03T20:45:53;4.05;;;0.93;;
20986;SDS011;10652;50.306;8.570;2023-04-03T20:49:56;2.92;;;0.95;;
20986;SDS011;10652;50.306;8.570;2023-04-03T20:53:58;3.35;;;1.10;;
20986;SDS011;10652;50.306;8.570;2023-04-03T20:58:00;2.88;;;1.08;;
20986;SDS011;10652;50.306;8.570;2023-04-03T21:02:02;2.30;;;1.00;;
20986;SDS011;10652;50.306;8.570;2023-04-03T21:19:55;4.05;;;1.00;;
20986;SDS011;10652;50.306;8.570;2023-04-03T21:23:58;3.30;;;1.00;;
20986;SDS011;10652;50.306;8.570;2023-04-03T21:28:02;3.28;;;1.30;;
20986;SDS011;10652;50.306;8.570;2023-04-03T21:32:05;2.20;;;0.93;;
20986;SDS011;10652;50.306;8.570;2023-04-03T21:36:09;2.20;;;1.15;;
20986;SDS011;10652;50.306;8.570;2023-04-03T21:40:11;2.65;;;0.95;;
20986;SDS011;10652;50.306;8.570;2023-04-03T21:44:14;3.53;;;1.00;;
20986;SDS011;10652;50.306;8.570;2023-04-03T21:48:16;2.90;;;1.00;;
20986;SDS011;10652;50.306;8.570;2023-04-03T21:52:19;4.47;;;1.08;;
20986;SDS011;10652;50.306;8.570;2023-04-03T21:56:21;4.45;;;1.10;;
20986;SDS011;10652;50.306;8.570;2023-04-03T22:00:25;1.90;;;0.98;;
20986;SDS011;10652;50.306;8.570;2023-04-03T22:04:27;2.72;;;1.08;;
20986;SDS011;10652;50.306;8.570;2023-04-03T22:08:30;2.05;;;1.02;;
20986;SDS011;10652;50.306;8.570;2023-04-03T22:12:32;3.10;;;1.10;;
20986;SDS011;10652;50.306;8.570;2023-04-03T22:16:34;3.35;;;1.10;;
20986;SDS011;10652;50.306;8.570;2023-04-03T22:20:37;2.88;;;1.20;;
20986;SDS011;10652;50.306;8.570;2023-04-03T22:24:39;2.17;;;1.00;;
20986;SDS011;10652;50.306;8.570;2023-04-03T22:28:42;2.72;;;1.20;;
20986;SDS011;10652;50.306;8.570;2023-04-03T22:32:46;3.00;;;0.93;;
20986;SDS011;10652;50.306;8.570;2023-04-03T22:36:48;3.40;;;1.30;;
20986;SDS011;10652;50.306;8.570;2023-04-03T22:41:00;2.63;;;1.23;;
20986;SDS011;10652;50.306;8.570;2023-04-03T22:45:04;2.17;;;1.10;;
20986;SDS011;10652;50.306;8.570;2023-04-03T22:49:07;1.95;;;0.98;;
20986;SDS011;10652;50.306;8.570;2023-04-03T22:53:09;2.70;;;1.15;;
20986;SDS011;10652;50.306;8.570;2023-04-03T22:57:11;2.88;;;0.90;;
20986;SDS011;10652;50.306;8.570;2023-04-03T23:01:14;1.33;;;0.82;;
20986;SDS011;10652;50.306;8.570;2023-04-03T23:05:16;2.00;;;1.15;;
20986;SDS011;10652;50.306;8.570;2023-04-03T23:09:18;2.03;;;1.17;;
20986;SDS011;10652;50.306;8.570;2023-04-03T23:13:21;2.55;;;1.10;;
20986;SDS011;10652;50.306;8.570;2023-04-03T23:17:24;5.15;;;1.50;;
20986;SDS011;10652;50.306;8.570;2023-04-03T23:21:26;2.17;;;1.10;;
20986;SDS011;10652;50.306;8.570;2023-04-03T23:25:28;2.65;;;1.17;;
20986;SDS011;10652;50.306;8.570;2023-04-03T23:29:30;1.70;;;1.00;;
20986;SDS011;10652;50.306;8.570;2023-04-03T23:33:33;3.72;;;1.20;;
20986;SDS011;10652;50.306;8.570;2023-04-03T23:37:39;3.47;;;1.20;;
20986;SDS011;10652;50.306;8.570;2023-04-03T23:41:41;1.73;;;0.95;;
20986;SDS011;10652;50.306;8.570;2023-04-03T23:45:45;2.35;;;1.20;;
20986;SDS011;10652;50.306;8.570;2023-04-03T23:49:47;3.85;;;1.38;;
20986;SDS011;10652;50.306;8.570;2023-04-03T23:53:49;2.47;;;1.20;;
20986;SDS011;10652;50.306;8.570;2023-04-03T23:57:51;3.63;;;1.20;;
